![]() |
EMODnet Physics ERDDAP
Easier access to scientific data |
log in|
Brought to you by EMODnet Physics |
| Dataset Title: | NDBC - Collection of dew point temperature (DEWT) TimeSeries - IN SITU MultiPointTimeSeriesObservation
|
| Institution: | NDBC (Dataset ID: TS_DEWT_NDBC) |
| Information: | Summary
| License
| FGDC
| ISO 19115
| Metadata
| Background
| Subset
| Data Access Form
| Make a graph
|
| Name | Last modified | Size | Description | |
|---|---|---|---|---|
| Parent Directory | - | - | ||
| JMLA2_TS_DEWT_012014.nc | 24-Dec-2024 10:23 | 428691 | ||
| JMLA2_TS_DEWT_012015.nc | 24-Dec-2024 10:24 | 427948 | ||
| JMLA2_TS_DEWT_012016.nc | 24-Dec-2024 10:25 | 427502 | ||
| JMLA2_TS_DEWT_012018.nc | 24-Dec-2024 10:26 | 429022 | ||
| JMLA2_TS_DEWT_012019.nc | 24-Dec-2024 10:30 | 428197 | ||
| JMLA2_TS_DEWT_012020.nc | 24-Dec-2024 10:34 | 422118 | ||
| JMLA2_TS_DEWT_012021.nc | 24-Dec-2024 10:37 | 428597 | ||
| JMLA2_TS_DEWT_012022.nc | 24-Dec-2024 10:41 | 429036 | ||
| JMLA2_TS_DEWT_012023.nc | 24-Dec-2024 10:44 | 428688 | ||
| JMLA2_TS_DEWT_012025.nc | 07-Feb-2025 09:51 | 428690 | ||
| JMLA2_TS_DEWT_012026.nc | 02-Feb-2026 16:32 | 428688 | ||
| JMLA2_TS_DEWT_022014.nc | 24-Dec-2024 10:23 | 429034 | ||
| JMLA2_TS_DEWT_022015.nc | 24-Dec-2024 10:24 | 428691 | ||
| JMLA2_TS_DEWT_022016.nc | 24-Dec-2024 10:26 | 428688 | ||
| JMLA2_TS_DEWT_022018.nc | 24-Dec-2024 10:27 | 428687 | ||
| JMLA2_TS_DEWT_022019.nc | 24-Dec-2024 10:30 | 429210 | ||
| JMLA2_TS_DEWT_022020.nc | 24-Dec-2024 10:34 | 428863 | ||
| JMLA2_TS_DEWT_022021.nc | 24-Dec-2024 10:38 | 428884 | ||
| JMLA2_TS_DEWT_022022.nc | 24-Dec-2024 10:41 | 428866 | ||
| JMLA2_TS_DEWT_022023.nc | 24-Dec-2024 10:45 | 429213 | ||
| JMLA2_TS_DEWT_022025.nc | 16-Mar-2025 06:35 | 428861 | ||
| JMLA2_TS_DEWT_022026.nc | 01-Mar-2026 15:09 | 428883 | ||
| JMLA2_TS_DEWT_032014.nc | 24-Dec-2024 10:23 | 428824 | ||
| JMLA2_TS_DEWT_032015.nc | 24-Dec-2024 10:25 | 429228 | ||
| JMLA2_TS_DEWT_032018.nc | 24-Dec-2024 10:27 | 428881 | ||
| JMLA2_TS_DEWT_032019.nc | 24-Dec-2024 10:31 | 428877 | ||
| JMLA2_TS_DEWT_032020.nc | 24-Dec-2024 10:34 | 428881 | ||
| JMLA2_TS_DEWT_032021.nc | 24-Dec-2024 10:38 | 429230 | ||
| JMLA2_TS_DEWT_032022.nc | 24-Dec-2024 10:41 | 428875 | ||
| JMLA2_TS_DEWT_032023.nc | 24-Dec-2024 10:45 | 428883 | ||
| JMLA2_TS_DEWT_032025.nc | 02-Apr-2025 03:37 | 428881 | ||
| JMLA2_TS_DEWT_032026.nc | 26-Mar-2026 05:37 | 429226 | ||
| JMLA2_TS_DEWT_042014.nc | 24-Dec-2024 10:23 | 428878 | ||
| JMLA2_TS_DEWT_042015.nc | 24-Dec-2024 10:25 | 428881 | ||
| JMLA2_TS_DEWT_042018.nc | 24-Dec-2024 10:27 | 429680 | ||
| JMLA2_TS_DEWT_042019.nc | 24-Dec-2024 10:31 | 429637 | ||
| JMLA2_TS_DEWT_042020.nc | 24-Dec-2024 10:35 | 429645 | ||
| JMLA2_TS_DEWT_042021.nc | 24-Dec-2024 10:38 | 429693 | ||
| JMLA2_TS_DEWT_042022.nc | 24-Dec-2024 10:42 | 429685 | ||
| JMLA2_TS_DEWT_042023.nc | 24-Dec-2024 10:45 | 429624 | ||
| JMLA2_TS_DEWT_042025.nc | 01-May-2025 07:20 | 429694 | ||
| JMLA2_TS_DEWT_052013.nc | 24-Dec-2024 10:22 | 429696 | ||
| JMLA2_TS_DEWT_052014.nc | 24-Dec-2024 10:23 | 429673 | ||
| JMLA2_TS_DEWT_052015.nc | 24-Dec-2024 10:25 | 429234 | ||
| JMLA2_TS_DEWT_052018.nc | 24-Dec-2024 10:28 | 429689 | ||
| JMLA2_TS_DEWT_052019.nc | 24-Dec-2024 10:31 | 428689 | ||
| JMLA2_TS_DEWT_052020.nc | 24-Dec-2024 10:35 | 429697 | ||
| JMLA2_TS_DEWT_052021.nc | 24-Dec-2024 10:39 | 429684 | ||
| JMLA2_TS_DEWT_052022.nc | 24-Dec-2024 10:42 | 429685 | ||
| JMLA2_TS_DEWT_052023.nc | 24-Dec-2024 10:46 | 429692 | ||
| JMLA2_TS_DEWT_052025.nc | 01-Jun-2025 08:17 | 429685 | ||
| JMLA2_TS_DEWT_062013.nc | 24-Dec-2024 10:22 | 429685 | ||
| JMLA2_TS_DEWT_062014.nc | 24-Dec-2024 10:24 | 429691 | ||
| JMLA2_TS_DEWT_062015.nc | 24-Dec-2024 10:25 | 429905 | ||
| JMLA2_TS_DEWT_062018.nc | 24-Dec-2024 10:28 | 429774 | ||
| JMLA2_TS_DEWT_062019.nc | 24-Dec-2024 10:32 | 429906 | ||
| JMLA2_TS_DEWT_062020.nc | 24-Dec-2024 10:35 | 429887 | ||
| JMLA2_TS_DEWT_062021.nc | 24-Dec-2024 10:39 | 429910 | ||
| JMLA2_TS_DEWT_062022.nc | 24-Dec-2024 10:42 | 429908 | ||
| JMLA2_TS_DEWT_062023.nc | 24-Dec-2024 10:46 | 429911 | ||
| JMLA2_TS_DEWT_062025.nc | 17-Jun-2025 06:30 | 429905 | ||
| JMLA2_TS_DEWT_072013.nc | 24-Dec-2024 10:22 | 429912 | ||
| JMLA2_TS_DEWT_072014.nc | 24-Dec-2024 10:24 | 429909 | ||
| JMLA2_TS_DEWT_072015.nc | 24-Dec-2024 10:25 | 429907 | ||
| JMLA2_TS_DEWT_072018.nc | 24-Dec-2024 10:28 | 429913 | ||
| JMLA2_TS_DEWT_072019.nc | 24-Dec-2024 10:32 | 429909 | ||
| JMLA2_TS_DEWT_072020.nc | 24-Dec-2024 10:36 | 429907 | ||
| JMLA2_TS_DEWT_072021.nc | 24-Dec-2024 10:39 | 429897 | ||
| JMLA2_TS_DEWT_072022.nc | 24-Dec-2024 10:43 | 429887 | ||
| JMLA2_TS_DEWT_072023.nc | 24-Dec-2024 10:46 | 429656 | ||
| JMLA2_TS_DEWT_072025.nc | 16-Aug-2025 06:43 | 429890 | ||
| JMLA2_TS_DEWT_082013.nc | 24-Dec-2024 10:22 | 429868 | ||
| JMLA2_TS_DEWT_082014.nc | 24-Dec-2024 10:24 | 429352 | ||
| JMLA2_TS_DEWT_082018.nc | 24-Dec-2024 10:29 | 429347 | ||
| JMLA2_TS_DEWT_082019.nc | 24-Dec-2024 10:32 | 429305 | ||
| JMLA2_TS_DEWT_082020.nc | 24-Dec-2024 10:36 | 429359 | ||
| JMLA2_TS_DEWT_082021.nc | 24-Dec-2024 10:39 | 429367 | ||
| JMLA2_TS_DEWT_082022.nc | 24-Dec-2024 10:43 | 429363 | ||
| JMLA2_TS_DEWT_082023.nc | 24-Dec-2024 10:46 | 429315 | ||
| JMLA2_TS_DEWT_082025.nc | 01-Sep-2025 07:12 | 429363 | ||
| JMLA2_TS_DEWT_092013.nc | 24-Dec-2024 10:22 | 428977 | ||
| JMLA2_TS_DEWT_092014.nc | 24-Dec-2024 10:24 | 425170 | ||
| JMLA2_TS_DEWT_092018.nc | 24-Dec-2024 10:29 | 429101 | ||
| JMLA2_TS_DEWT_092019.nc | 24-Dec-2024 10:33 | 429355 | ||
| JMLA2_TS_DEWT_092020.nc | 24-Dec-2024 10:36 | 429359 | ||
| JMLA2_TS_DEWT_092021.nc | 24-Dec-2024 10:40 | 429361 | ||
| JMLA2_TS_DEWT_092022.nc | 24-Dec-2024 10:43 | 429370 | ||
| JMLA2_TS_DEWT_092023.nc | 24-Dec-2024 10:47 | 429365 | ||
| JMLA2_TS_DEWT_092025.nc | 01-Oct-2025 07:08 | 429363 | ||
| JMLA2_TS_DEWT_102013.nc | 24-Dec-2024 10:23 | 429364 | ||
| JMLA2_TS_DEWT_102014.nc | 24-Dec-2024 10:24 | 429363 | ||
| JMLA2_TS_DEWT_102016.nc | 24-Dec-2024 10:26 | 429357 | ||
| JMLA2_TS_DEWT_102018.nc | 24-Dec-2024 10:29 | 429567 | ||
| JMLA2_TS_DEWT_102019.nc | 24-Dec-2024 10:33 | 429567 | ||
| JMLA2_TS_DEWT_102020.nc | 24-Dec-2024 10:37 | 429571 | ||
| JMLA2_TS_DEWT_102021.nc | 24-Dec-2024 10:40 | 429567 | ||
| JMLA2_TS_DEWT_102022.nc | 24-Dec-2024 10:44 | 429570 | ||
| JMLA2_TS_DEWT_102023.nc | 24-Dec-2024 10:47 | 429570 | ||
| JMLA2_TS_DEWT_102025.nc | 01-Nov-2025 05:55 | 429565 | ||
| JMLA2_TS_DEWT_112013.nc | 24-Dec-2024 10:23 | 429570 | ||
| JMLA2_TS_DEWT_112014.nc | 24-Dec-2024 10:24 | 429571 | ||
| JMLA2_TS_DEWT_112015.nc | 24-Dec-2024 10:25 | 429567 | ||
| JMLA2_TS_DEWT_112018.nc | 24-Dec-2024 10:29 | 429573 | ||
| JMLA2_TS_DEWT_112019.nc | 24-Dec-2024 10:33 | 429563 | ||
| JMLA2_TS_DEWT_112020.nc | 24-Dec-2024 10:37 | 429569 | ||
| JMLA2_TS_DEWT_112021.nc | 24-Dec-2024 10:40 | 429570 | ||
| JMLA2_TS_DEWT_112022.nc | 24-Dec-2024 10:44 | 418875 | ||
| JMLA2_TS_DEWT_112023.nc | 24-Dec-2024 10:47 | 427591 | ||
| JMLA2_TS_DEWT_112024.nc | 17-Jan-2025 17:38 | 429568 | ||
| JMLA2_TS_DEWT_112025.nc | 01-Dec-2025 09:46 | 429571 | ||
| JMLA2_TS_DEWT_122013.nc | 24-Dec-2024 10:23 | 429566 | ||
| JMLA2_TS_DEWT_122014.nc | 24-Dec-2024 10:24 | 429664 | ||
| JMLA2_TS_DEWT_122015.nc | 24-Dec-2024 10:25 | 429679 | ||
| JMLA2_TS_DEWT_122017.nc | 24-Dec-2024 10:26 | 428637 | ||
| JMLA2_TS_DEWT_122018.nc | 24-Dec-2024 10:30 | 429668 | ||
| JMLA2_TS_DEWT_122019.nc | 24-Dec-2024 10:34 | 429685 | ||
| JMLA2_TS_DEWT_122020.nc | 24-Dec-2024 10:37 | 429695 | ||
| JMLA2_TS_DEWT_122021.nc | 24-Dec-2024 10:41 | 429693 | ||
| JMLA2_TS_DEWT_122022.nc | 24-Dec-2024 10:44 | 429684 | ||
| JMLA2_TS_DEWT_122023.nc | 24-Dec-2024 10:48 | 429287 | ||
| JMLA2_TS_DEWT_122024.nc | 22-Jan-2025 18:23 | 429699 | ||
| JMLA2_TS_DEWT_122025.nc | 01-Jan-2026 09:49 | 426537 | ||